createdAt,value
2023-03-14T00:00:22.818Z,0.40
2023-03-14T00:02:54.170Z,0.50
2023-03-14T00:05:20.980Z,0.40
2023-03-14T00:07:47.518Z,0.40
2023-03-14T00:10:15.650Z,0.40
2023-03-14T00:12:43.228Z,0.50
2023-03-14T00:15:11.181Z,0.60
2023-03-14T00:17:38.222Z,0.50
2023-03-14T00:20:09.098Z,0.30
2023-03-14T00:22:36.882Z,0.45
2023-03-14T00:25:05.417Z,0.30
2023-03-14T00:27:32.101Z,0.50
2023-03-14T00:29:59.178Z,0.30
2023-03-14T00:32:25.829Z,0.50
2023-03-14T00:34:52.498Z,0.40
2023-03-14T00:37:19.192Z,0.50
2023-03-14T00:39:45.726Z,0.43
2023-03-14T00:42:12.481Z,0.50
2023-03-14T00:44:39.085Z,0.40
2023-03-14T00:47:05.773Z,0.45
2023-03-14T00:49:32.465Z,0.35
2023-03-14T00:51:59.037Z,0.40
2023-03-14T00:54:25.641Z,0.40
2023-03-14T00:56:52.185Z,0.55
2023-03-14T00:59:18.813Z,0.50
2023-03-14T01:01:45.360Z,0.40
2023-03-14T01:04:12.057Z,0.50
2023-03-14T01:06:39.570Z,0.50
2023-03-14T01:09:06.164Z,0.32
2023-03-14T01:11:34.982Z,0.40
2023-03-14T01:14:02.782Z,0.40
2023-03-14T01:16:32.103Z,0.30
2023-03-14T01:18:58.686Z,0.50
2023-03-14T01:21:28.160Z,0.38
2023-03-14T01:23:56.266Z,0.40
2023-03-14T01:26:26.295Z,0.40
2023-03-14T01:28:55.632Z,0.30
2023-03-14T01:31:23.072Z,0.50
2023-03-14T01:33:49.792Z,0.40
2023-03-14T01:36:17.264Z,0.50
2023-03-14T01:38:43.843Z,0.40
2023-03-14T01:41:18.727Z,0.50
2023-03-14T01:43:45.617Z,0.50
2023-03-14T01:46:35.711Z,0.50
2023-03-14T01:49:21.229Z,0.40
2023-03-14T01:51:57.240Z,0.52
2023-03-14T01:54:36.706Z,0.50
2023-03-14T01:57:13.550Z,0.75
2023-03-14T01:59:43.871Z,0.40
2023-03-14T02:02:12.595Z,0.38
2023-03-14T02:04:40.665Z,0.60
2023-03-14T02:07:11.090Z,0.50
2023-03-14T02:09:39.565Z,0.47
2023-03-14T02:12:08.309Z,0.60
2023-03-14T02:14:36.541Z,0.30
2023-03-14T02:17:05.084Z,0.40
2023-03-14T02:20:09.752Z,0.50
2023-03-14T02:22:38.145Z,0.50
2023-03-14T02:25:32.134Z,0.40
2023-03-14T02:27:59.640Z,0.60
2023-03-14T02:30:29.388Z,0.40
2023-03-14T02:32:59.947Z,0.45
2023-03-14T02:35:30.522Z,0.30
2023-03-14T02:38:14.036Z,0.32
2023-03-14T02:40:40.609Z,0.20
2023-03-14T02:43:07.246Z,0.28
2023-03-14T02:45:38.437Z,0.57
2023-03-14T02:48:09.862Z,0.40
2023-03-14T02:50:36.505Z,0.40
2023-03-14T02:53:03.502Z,0.40
2023-03-14T02:55:30.196Z,0.52
2023-03-14T02:57:56.859Z,0.50
2023-03-14T03:00:23.538Z,0.50
2023-03-14T03:02:50.201Z,0.40
2023-03-14T03:05:17.267Z,0.52
2023-03-14T03:07:43.947Z,0.45
2023-03-14T03:10:11.133Z,0.38
2023-03-14T03:12:37.666Z,0.35
2023-03-14T03:15:04.606Z,0.50
2023-03-14T03:17:31.140Z,0.40
2023-03-14T03:19:57.695Z,0.40
2023-03-14T03:22:24.264Z,0.60
2023-03-14T03:24:50.943Z,0.55
2023-03-14T03:27:17.642Z,0.52
2023-03-14T03:29:44.292Z,0.40
2023-03-14T03:32:10.852Z,0.40
2023-03-14T03:34:37.420Z,0.50
2023-03-14T03:37:03.995Z,0.43
2023-03-14T03:39:30.541Z,0.40
2023-03-14T03:41:57.062Z,0.38
2023-03-14T03:44:23.657Z,0.40
2023-03-14T03:46:50.257Z,0.63
2023-03-14T03:49:16.778Z,0.40
2023-03-14T03:51:43.343Z,0.50
2023-03-14T03:54:09.893Z,0.40
2023-03-14T03:56:36.434Z,0.40
2023-03-14T03:59:03.183Z,0.40
2023-03-14T04:01:29.768Z,0.30
2023-03-14T04:03:56.585Z,0.30
2023-03-14T04:06:24.530Z,0.38
2023-03-14T04:08:51.115Z,0.30
2023-03-14T04:11:18.290Z,0.35
2023-03-14T04:13:44.934Z,0.40
2023-03-14T04:16:18.067Z,0.38
2023-03-14T04:18:44.737Z,0.38
2023-03-14T04:21:11.297Z,0.35
2023-03-14T04:23:37.917Z,0.40
2023-03-14T04:26:04.658Z,0.40
2023-03-14T04:28:31.499Z,0.60
2023-03-14T04:30:58.077Z,0.40
2023-03-14T04:33:25.098Z,0.30
2023-03-14T04:35:55.163Z,0.30
2023-03-14T04:38:21.818Z,0.40
2023-03-14T04:40:48.452Z,0.40
2023-03-14T04:43:15.059Z,0.40
2023-03-14T04:45:44.695Z,0.40
2023-03-14T04:48:11.889Z,0.40
2023-03-14T04:50:38.433Z,0.40
2023-03-14T04:53:05.731Z,0.30
2023-03-14T04:55:33.443Z,0.35
2023-03-14T04:58:00.499Z,0.40
2023-03-14T05:00:27.216Z,0.40
2023-03-14T05:02:53.860Z,0.32
2023-03-14T05:05:20.594Z,0.35
2023-03-14T05:07:48.279Z,0.50
2023-03-14T05:10:15.228Z,0.47
2023-03-14T05:12:41.844Z,0.43
2023-03-14T05:15:09.293Z,0.47
2023-03-14T05:17:36.156Z,0.50
2023-03-14T05:20:08.471Z,0.32
2023-03-14T05:22:35.246Z,0.30
2023-03-14T05:25:01.886Z,0.30
2023-03-14T05:27:28.417Z,0.45
2023-03-14T05:29:54.992Z,0.40
2023-03-14T05:32:21.635Z,0.40
2023-03-14T05:34:48.261Z,0.40
2023-03-14T05:37:14.795Z,0.40
2023-03-14T05:39:41.391Z,0.73
2023-03-14T05:42:07.995Z,0.43
2023-03-14T05:44:34.612Z,0.38
2023-03-14T05:47:01.204Z,0.40
2023-03-14T05:49:27.798Z,0.32
2023-03-14T05:51:54.327Z,0.50
2023-03-14T05:54:20.895Z,0.60
2023-03-14T05:56:47.455Z,0.60
2023-03-14T05:59:15.481Z,0.45
2023-03-14T06:01:42.140Z,0.43
2023-03-14T06:04:08.799Z,0.60
2023-03-14T06:06:35.424Z,1.08
2023-03-14T06:09:02.096Z,0.60
2023-03-14T06:11:28.655Z,0.60
2023-03-14T06:13:55.178Z,0.50
2023-03-14T06:16:21.994Z,0.68
2023-03-14T06:18:49.928Z,0.45
2023-03-14T06:21:18.450Z,0.50
2023-03-14T06:23:46.118Z,0.50
2023-03-14T06:26:13.097Z,0.73
2023-03-14T06:28:39.929Z,0.80
2023-03-14T06:31:06.952Z,0.68
2023-03-14T06:33:33.605Z,0.50
2023-03-14T06:36:00.173Z,0.65
2023-03-14T06:38:26.811Z,0.57
2023-03-14T06:40:53.397Z,0.57
2023-03-14T06:43:19.926Z,0.60
2023-03-14T06:45:46.596Z,0.80
2023-03-14T06:48:13.283Z,0.80
2023-03-14T06:50:39.820Z,0.70
2023-03-14T06:53:06.501Z,0.70
2023-03-14T06:55:33.173Z,0.60
2023-03-14T06:57:59.700Z,0.65
2023-03-14T07:00:26.274Z,0.57
2023-03-14T07:02:52.859Z,0.70
2023-03-14T07:05:19.395Z,0.55
2023-03-14T07:07:45.968Z,0.70
2023-03-14T07:10:12.607Z,0.68
2023-03-14T07:12:39.212Z,0.50
2023-03-14T07:17:52.785Z,0.52
2023-03-14T07:20:19.454Z,0.60
2023-03-14T07:22:50.239Z,0.70
2023-03-14T07:25:17.579Z,0.60
2023-03-14T07:27:46.034Z,0.50
2023-03-14T07:30:13.151Z,0.60
2023-03-14T07:32:39.777Z,0.50
2023-03-14T07:35:07.356Z,0.75
2023-03-14T07:37:33.882Z,0.60
2023-03-14T07:40:00.414Z,0.80
2023-03-14T07:42:27.157Z,0.65
2023-03-14T07:44:53.709Z,0.80
2023-03-14T07:47:20.661Z,0.57
2023-03-14T07:49:47.312Z,0.52
2023-03-14T07:52:13.940Z,0.45
2023-03-14T07:54:40.534Z,0.60
2023-03-14T07:57:07.204Z,0.43
2023-03-14T07:59:33.758Z,0.70
2023-03-14T08:02:00.301Z,0.50
2023-03-14T08:04:28.161Z,0.60
2023-03-14T08:06:55.358Z,0.70
2023-03-14T08:09:21.925Z,0.50
2023-03-14T08:11:48.507Z,0.50
2023-03-14T08:14:15.169Z,0.68
2023-03-14T08:16:41.698Z,0.68
2023-03-14T08:19:08.331Z,0.82
2023-03-14T08:21:34.937Z,1.00
2023-03-14T08:24:01.709Z,0.80
2023-03-14T08:26:28.342Z,0.80
2023-03-14T08:28:54.977Z,0.88
2023-03-14T08:31:21.842Z,0.70
2023-03-14T08:33:48.579Z,1.00
2023-03-14T08:36:15.368Z,0.80
2023-03-14T08:38:43.441Z,0.73
2023-03-14T08:41:10.603Z,0.90
2023-03-14T08:43:37.175Z,0.75
2023-03-14T08:46:04.593Z,1.00
2023-03-14T08:48:31.744Z,0.90
2023-03-14T08:51:13.664Z,0.95
2023-03-14T08:53:40.780Z,0.90
2023-03-14T08:56:10.692Z,0.85
2023-03-14T08:58:38.813Z,0.77
2023-03-14T09:01:10.333Z,0.68
2023-03-14T09:03:37.258Z,0.80
2023-03-14T09:06:09.183Z,0.88
2023-03-14T09:08:38.178Z,0.80
2023-03-14T09:11:09.357Z,0.68
2023-03-14T09:13:36.800Z,0.75
2023-03-14T09:16:03.552Z,0.70
2023-03-14T09:18:30.163Z,0.65
2023-03-14T09:20:56.897Z,0.68
2023-03-14T09:23:23.556Z,0.77
2023-03-14T09:25:50.117Z,0.65
2023-03-14T09:28:16.683Z,0.75
2023-03-14T09:30:43.911Z,0.80
2023-03-14T09:33:10.531Z,0.82
2023-03-14T09:35:37.164Z,0.70
2023-03-14T09:38:03.933Z,0.60
2023-03-14T09:40:35.518Z,0.68
2023-03-14T09:43:02.997Z,0.60
2023-03-14T09:45:35.429Z,0.80
2023-03-14T09:48:04.927Z,0.70
2023-03-14T09:50:44.842Z,0.80
2023-03-14T09:53:16.614Z,1.13
2023-03-14T09:55:44.197Z,0.75
2023-03-14T09:58:17.597Z,0.77
2023-03-14T10:00:44.803Z,0.70
2023-03-14T10:03:14.181Z,0.70
2023-03-14T10:05:42.730Z,0.68
2023-03-14T10:08:13.933Z,0.45
2023-03-14T10:10:41.431Z,0.57
2023-03-14T10:13:25.372Z,0.55
2023-03-14T10:16:00.570Z,0.80
2023-03-14T10:18:31.114Z,0.60
2023-03-14T10:21:21.045Z,0.60
2023-03-14T10:23:49.710Z,0.60
2023-03-14T10:26:19.036Z,0.80
2023-03-14T10:28:52.963Z,0.60
2023-03-14T10:31:25.389Z,0.60
2023-03-14T10:34:01.667Z,0.55
2023-03-14T10:36:30.858Z,0.70
2023-03-14T10:39:40.169Z,0.70
2023-03-14T10:42:16.130Z,0.60
2023-03-14T10:44:43.891Z,0.43
2023-03-14T10:47:21.349Z,0.50
2023-03-14T10:49:48.210Z,0.50
2023-03-14T10:52:30.785Z,0.88
2023-03-14T10:55:10.051Z,0.52
2023-03-14T10:57:43.663Z,0.40
2023-03-14T11:00:23.061Z,0.60
2023-03-14T11:03:08.732Z,0.50
2023-03-14T11:05:54.333Z,0.70
2023-03-14T11:08:38.132Z,0.60
2023-03-14T11:11:28.841Z,0.40
2023-03-14T11:14:25.967Z,0.70
2023-03-14T11:17:02.289Z,0.52
2023-03-14T11:19:33.614Z,0.60
2023-03-14T11:22:14.997Z,0.60
2023-03-14T11:25:19.170Z,0.60
2023-03-14T11:27:56.135Z,0.52
2023-03-14T11:30:41.743Z,0.60
2023-03-14T11:33:17.266Z,0.60
2023-03-14T11:36:04.129Z,0.50
2023-03-14T11:38:34.361Z,0.60
2023-03-14T11:41:01.725Z,0.63
2023-03-14T11:43:36.040Z,0.63
2023-03-14T11:46:08.456Z,0.50
2023-03-14T11:48:41.041Z,0.60
2023-03-14T11:51:18.035Z,0.73
2023-03-14T11:54:03.885Z,0.80
2023-03-14T11:56:45.446Z,0.73
2023-03-14T11:59:25.747Z,0.55
2023-03-14T12:01:57.446Z,0.60
2023-03-14T12:04:52.314Z,0.70
2023-03-14T12:07:27.932Z,0.60
2023-03-14T12:09:55.550Z,0.73
2023-03-14T12:12:25.446Z,0.70
2023-03-14T12:15:01.208Z,0.82
2023-03-14T12:17:47.272Z,0.88
2023-03-14T12:20:23.085Z,0.73
2023-03-14T12:23:05.177Z,0.65
2023-03-14T12:25:34.069Z,0.70
2023-03-14T12:28:00.609Z,0.82
2023-03-14T12:30:40.511Z,0.55
2023-03-14T12:33:10.031Z,0.63
2023-03-14T12:35:54.007Z,0.70
2023-03-14T12:38:39.960Z,0.50
2023-03-14T12:41:23.994Z,0.50
2023-03-14T12:43:50.689Z,0.68
2023-03-14T12:46:26.880Z,0.70
2023-03-14T12:49:02.270Z,0.50
2023-03-14T12:51:40.362Z,0.50
2023-03-14T12:54:25.054Z,0.60
2023-03-14T12:57:01.389Z,0.50
2023-03-14T12:59:33.776Z,0.60
2023-03-14T13:02:22.707Z,0.60
2023-03-14T13:04:53.630Z,0.30
2023-03-14T13:07:36.327Z,0.60
2023-03-14T13:13:02.320Z,0.60
2023-03-14T13:15:41.022Z,0.50
2023-03-14T13:18:18.646Z,0.55
2023-03-14T13:20:59.276Z,0.52
2023-03-14T13:23:28.402Z,0.70
2023-03-14T13:25:55.742Z,0.50
2023-03-14T13:28:23.760Z,0.50
2023-03-14T13:30:55.824Z,0.60
2023-03-14T13:33:24.684Z,0.50
2023-03-14T13:35:59.147Z,0.47
2023-03-14T13:38:30.804Z,0.50
2023-03-14T13:41:00.541Z,0.40
2023-03-14T13:43:32.926Z,0.60
2023-03-14T13:46:16.163Z,0.60
2023-03-14T13:48:51.445Z,0.43
2023-03-14T13:51:20.060Z,0.45
2023-03-14T13:53:51.542Z,0.45
2023-03-14T13:56:20.407Z,0.70
2023-03-14T13:58:48.035Z,0.70
2023-03-14T14:01:25.152Z,0.40
2023-03-14T14:03:54.394Z,0.30
2023-03-14T14:06:34.021Z,0.60
2023-03-14T14:09:04.810Z,0.40
2023-03-14T14:12:14.903Z,0.50
2023-03-14T14:14:50.566Z,0.50
2023-03-14T14:17:20.667Z,0.60
2023-03-14T14:19:48.182Z,0.60
2023-03-14T14:22:14.960Z,0.32
2023-03-14T14:24:42.122Z,0.70
2023-03-14T14:27:18.983Z,0.60
2023-03-14T14:29:58.630Z,0.60
2023-03-14T14:32:25.199Z,0.60
2023-03-14T14:34:59.941Z,0.60
2023-03-14T14:37:34.938Z,0.50
2023-03-14T14:40:09.621Z,0.68
2023-03-14T14:42:40.910Z,0.60
2023-03-14T14:45:12.459Z,0.50
2023-03-14T14:47:53.261Z,0.40
2023-03-14T14:50:48.722Z,0.60
2023-03-14T14:53:21.014Z,0.60
2023-03-14T14:55:52.222Z,0.60
2023-03-14T14:58:29.484Z,0.80
2023-03-14T15:01:05.259Z,0.70
2023-03-14T15:03:34.428Z,0.57
2023-03-14T15:06:01.552Z,0.50
2023-03-14T15:08:28.804Z,0.52
2023-03-14T15:10:57.507Z,0.60
2023-03-14T15:13:24.220Z,0.40
2023-03-14T15:15:56.797Z,0.60
2023-03-14T15:18:25.764Z,0.68
2023-03-14T15:20:52.773Z,0.60
2023-03-14T15:23:21.857Z,0.70
2023-03-14T15:25:55.895Z,0.57
2023-03-14T15:28:30.979Z,0.50
2023-03-14T15:30:59.684Z,0.80
2023-03-14T15:33:27.567Z,0.50
2023-03-14T15:35:54.437Z,0.80
2023-03-14T15:38:23.690Z,0.65
2023-03-14T15:40:51.513Z,0.45
2023-03-14T15:43:19.222Z,0.68
2023-03-14T15:45:46.379Z,0.57
2023-03-14T15:48:19.271Z,0.60
2023-03-14T15:50:46.470Z,0.60
2023-03-14T15:53:14.153Z,0.50
2023-03-14T15:55:40.753Z,0.50
2023-03-14T15:58:11.524Z,0.60
2023-03-14T16:00:38.772Z,0.65
2023-03-14T16:03:05.449Z,0.55
2023-03-14T16:05:31.988Z,0.60
2023-03-14T16:07:58.521Z,0.40
2023-03-14T16:10:25.097Z,0.52
2023-03-14T16:12:51.657Z,0.60
2023-03-14T16:15:18.193Z,0.50
2023-03-14T16:17:44.795Z,0.40
2023-03-14T16:20:12.222Z,0.47
2023-03-14T16:22:39.348Z,0.55
2023-03-14T16:25:08.492Z,0.50
2023-03-14T16:27:35.104Z,0.47
2023-03-14T16:30:01.755Z,0.40
2023-03-14T16:32:28.871Z,0.50
2023-03-14T16:34:55.459Z,0.40
2023-03-14T16:37:24.511Z,0.50
2023-03-14T16:42:46.754Z,0.50
2023-03-14T16:45:21.842Z,0.55
2023-03-14T16:47:48.390Z,0.45
2023-03-14T16:50:15.233Z,0.70
2023-03-14T16:52:41.859Z,0.50
2023-03-14T16:55:08.593Z,0.45
2023-03-14T16:57:35.121Z,0.45
2023-03-14T17:00:01.751Z,0.70
2023-03-14T17:02:28.294Z,0.60
2023-03-14T17:04:54.815Z,0.60
2023-03-14T17:07:21.371Z,0.60
2023-03-14T17:09:48.596Z,0.77
2023-03-14T17:12:15.258Z,0.57
2023-03-14T17:14:41.907Z,0.65
2023-03-14T17:17:08.457Z,0.68
2023-03-14T17:19:35.475Z,0.70
2023-03-14T17:24:48.670Z,1.00
2023-03-14T17:27:19.842Z,0.80
2023-03-14T17:29:47.560Z,0.98
2023-03-14T17:32:17.684Z,0.70
2023-03-14T17:34:44.377Z,1.10
2023-03-14T17:37:10.975Z,1.10
2023-03-14T17:39:38.523Z,0.90
2023-03-14T17:42:05.974Z,0.77
2023-03-14T17:44:32.785Z,0.77
2023-03-14T17:46:59.777Z,0.90
2023-03-14T17:49:26.534Z,1.00
2023-03-14T17:51:53.300Z,0.88
2023-03-14T17:54:20.174Z,0.80
2023-03-14T17:56:48.705Z,0.88
2023-03-14T17:59:15.992Z,0.60
2023-03-14T18:01:42.892Z,0.80
2023-03-14T18:04:09.930Z,0.70
2023-03-14T18:06:36.712Z,0.80
2023-03-14T18:09:05.688Z,0.70
2023-03-14T18:11:32.498Z,0.90
2023-03-14T18:14:01.500Z,0.90
2023-03-14T18:16:28.556Z,0.70
2023-03-14T18:18:56.913Z,0.70
2023-03-14T18:21:23.636Z,0.68
2023-03-14T18:23:50.236Z,0.70
2023-03-14T18:26:17.488Z,0.73
2023-03-14T18:28:44.093Z,1.00
2023-03-14T18:31:12.609Z,0.70
2023-03-14T18:33:41.856Z,0.70
2023-03-14T18:36:09.851Z,0.82
2023-03-14T18:38:36.830Z,0.80
2023-03-14T18:41:05.749Z,0.68
2023-03-14T18:43:33.849Z,0.82
2023-03-14T18:46:02.068Z,0.75
2023-03-14T18:48:30.054Z,0.85
2023-03-14T18:50:58.714Z,0.60
2023-03-14T18:53:32.079Z,0.60
2023-03-14T18:56:00.325Z,0.70
2023-03-14T18:58:28.353Z,0.90
2023-03-14T19:01:00.137Z,0.88
2023-03-14T19:03:26.979Z,0.80
2023-03-14T19:05:54.652Z,0.70
2023-03-14T19:08:23.621Z,0.80
2023-03-14T19:10:52.307Z,0.90
2023-03-14T19:13:18.847Z,0.63
2023-03-14T19:15:45.450Z,1.00
2023-03-14T19:18:12.173Z,0.77
2023-03-14T19:20:41.038Z,0.70
2023-03-14T19:23:08.517Z,0.80
2023-03-14T19:25:35.231Z,0.80
2023-03-14T19:28:01.854Z,0.80
2023-03-14T19:30:29.940Z,0.77
2023-03-14T19:32:56.538Z,0.68
2023-03-14T19:35:23.180Z,0.70
2023-03-14T19:37:49.852Z,0.80
2023-03-14T19:40:16.606Z,0.80
2023-03-14T19:42:43.409Z,0.77
2023-03-14T19:45:10.538Z,0.80
2023-03-14T19:47:37.258Z,0.82
2023-03-14T19:50:03.988Z,0.77
2023-03-14T19:52:30.866Z,0.75
2023-03-14T19:54:57.465Z,0.73
2023-03-14T19:57:24.299Z,0.68
2023-03-14T19:59:51.172Z,0.77
2023-03-14T20:02:18.229Z,0.70
2023-03-14T20:04:46.442Z,0.90
2023-03-14T20:07:13.823Z,0.70
2023-03-14T20:09:41.414Z,0.80
2023-03-14T20:12:09.076Z,0.70
2023-03-14T20:14:36.105Z,0.77
2023-03-14T20:17:02.710Z,0.60
2023-03-14T20:19:29.596Z,0.68
2023-03-14T20:21:56.196Z,0.55
2023-03-14T20:24:22.746Z,0.90
2023-03-14T20:26:49.295Z,0.65
2023-03-14T20:29:15.980Z,0.68
2023-03-14T20:31:43.004Z,0.90
2023-03-14T20:34:09.904Z,0.60
2023-03-14T20:36:37.877Z,0.80
2023-03-14T20:39:05.380Z,0.85
2023-03-14T20:41:32.113Z,0.60
2023-03-14T20:43:58.851Z,0.77
2023-03-14T20:46:25.472Z,0.65
2023-03-14T20:48:52.200Z,0.73
2023-03-14T20:51:18.872Z,0.60
2023-03-14T20:53:45.568Z,0.75
2023-03-14T20:56:12.183Z,0.80
2023-03-14T20:58:39.757Z,0.65
2023-03-14T21:01:06.359Z,0.70
2023-03-14T21:03:33.044Z,0.70
2023-03-14T21:05:59.783Z,0.60
2023-03-14T21:08:26.717Z,0.80
2023-03-14T21:10:55.814Z,0.73
2023-03-14T21:13:23.351Z,0.50
2023-03-14T21:15:50.036Z,0.88
2023-03-14T21:18:16.737Z,0.82
2023-03-14T21:20:44.001Z,0.70
2023-03-14T21:23:11.919Z,0.60
2023-03-14T21:25:38.823Z,0.52
2023-03-14T21:28:05.642Z,0.70
2023-03-14T21:30:34.003Z,0.70
2023-03-14T21:33:01.230Z,0.60
2023-03-14T21:35:28.095Z,0.77
2023-03-14T21:37:54.751Z,0.60
2023-03-14T21:40:22.191Z,0.70
2023-03-14T21:42:48.851Z,0.60
2023-03-14T21:45:16.607Z,0.60
2023-03-14T21:47:45.400Z,0.70
2023-03-14T21:50:14.972Z,0.60
2023-03-14T21:52:46.209Z,0.52
2023-03-14T21:55:17.356Z,0.80
2023-03-14T21:57:45.920Z,0.77
2023-03-14T22:00:16.867Z,0.52
2023-03-14T22:02:53.785Z,0.70
2023-03-14T22:05:31.561Z,0.82
2023-03-14T22:07:58.330Z,0.60
2023-03-14T22:10:24.937Z,0.50
2023-03-14T22:12:51.590Z,0.70
2023-03-14T22:15:18.257Z,0.50
2023-03-14T22:17:44.806Z,0.60
2023-03-14T22:20:13.762Z,0.60
2023-03-14T22:22:41.089Z,0.70
2023-03-14T22:25:08.188Z,0.70
2023-03-14T22:27:34.745Z,0.90
2023-03-14T22:30:01.545Z,0.80
2023-03-14T22:32:28.190Z,0.60
2023-03-14T22:34:54.766Z,0.57
2023-03-14T22:37:22.903Z,0.50
2023-03-14T22:39:49.459Z,0.50
2023-03-14T22:42:16.102Z,0.50
2023-03-14T22:44:42.704Z,0.52
2023-03-14T22:47:09.354Z,0.70
2023-03-14T22:49:35.898Z,0.70
2023-03-14T22:52:02.484Z,0.63
2023-03-14T22:54:29.134Z,0.60
2023-03-14T22:56:55.875Z,0.60
2023-03-14T22:59:22.564Z,0.55
2023-03-14T23:01:49.114Z,0.47
2023-03-14T23:04:15.754Z,0.60
2023-03-14T23:06:42.397Z,0.50
2023-03-14T23:09:09.422Z,0.75
2023-03-14T23:11:35.966Z,0.70
2023-03-14T23:14:03.522Z,0.52
2023-03-14T23:16:38.070Z,0.63
2023-03-14T23:19:06.361Z,0.50
2023-03-14T23:21:32.934Z,0.50
2023-03-14T23:23:59.536Z,0.60
2023-03-14T23:26:27.460Z,0.50
2023-03-14T23:28:54.649Z,0.65
2023-03-14T23:31:21.723Z,0.60
2023-03-14T23:33:50.113Z,0.45
2023-03-14T23:36:22.069Z,0.60
2023-03-14T23:38:48.638Z,0.70
2023-03-14T23:41:15.605Z,0.60
2023-03-14T23:43:44.671Z,0.50
2023-03-14T23:46:11.729Z,0.70
2023-03-14T23:48:39.008Z,0.60
2023-03-14T23:51:08.439Z,0.50
2023-03-14T23:53:35.065Z,0.50
2023-03-14T23:56:02.348Z,0.50
2023-03-14T23:58:35.527Z,0.50
